createdAt,value
2018-03-21T00:01:32.896Z,991.51
2018-03-21T00:02:32.798Z,991.60
2018-03-21T00:04:26.045Z,991.61
2018-03-21T00:05:25.978Z,991.56
2018-03-21T00:07:19.254Z,991.64
2018-03-21T00:08:19.156Z,991.74
2018-03-21T00:10:12.401Z,991.72
2018-03-21T00:11:12.332Z,991.77
2018-03-21T00:13:05.609Z,991.76
2018-03-21T00:14:05.511Z,991.79
2018-03-21T00:15:58.758Z,991.79
2018-03-21T00:16:58.688Z,991.81
2018-03-21T00:18:51.968Z,991.84
2018-03-21T00:19:51.868Z,991.86
2018-03-21T00:21:45.113Z,991.90
2018-03-21T00:22:45.046Z,991.86
2018-03-21T00:24:38.322Z,991.87
2018-03-21T00:25:38.222Z,991.91
2018-03-21T00:27:31.468Z,991.84
2018-03-21T00:28:31.402Z,991.86
2018-03-21T00:30:24.688Z,991.92
2018-03-21T00:31:24.587Z,991.97
2018-03-21T00:33:17.833Z,991.92
2018-03-21T00:34:17.764Z,991.99
2018-03-21T00:36:11.040Z,991.99
2018-03-21T00:37:10.941Z,991.96
2018-03-21T00:39:04.185Z,991.94
2018-03-21T00:40:04.116Z,992.08
2018-03-21T00:41:57.392Z,992.08
2018-03-21T00:42:57.293Z,992.10
2018-03-21T00:44:50.543Z,992.14
2018-03-21T00:45:50.471Z,992.14
2018-03-21T00:47:43.748Z,992.17
2018-03-21T00:48:43.647Z,992.25
2018-03-21T00:50:36.893Z,992.27
2018-03-21T00:51:36.824Z,992.23
2018-03-21T00:53:30.102Z,992.21
2018-03-21T00:54:30.000Z,992.21
2018-03-21T00:56:23.245Z,992.18
2018-03-21T00:57:23.178Z,992.15
2018-03-21T00:59:16.452Z,992.08
2018-03-21T01:00:16.353Z,992.07
2018-03-21T01:02:09.604Z,992.11
2018-03-21T01:03:09.533Z,992.14
2018-03-21T01:05:02.804Z,992.21
2018-03-21T01:06:02.710Z,992.17
2018-03-21T01:07:55.948Z,992.19
2018-03-21T01:08:55.877Z,992.14
2018-03-21T01:10:49.153Z,992.16
2018-03-21T01:11:49.053Z,992.17
2018-03-21T01:13:42.296Z,992.22
2018-03-21T01:14:42.227Z,992.24
2018-03-21T01:16:35.500Z,992.23
2018-03-21T01:17:35.402Z,992.20
2018-03-21T01:19:28.644Z,992.18
2018-03-21T01:20:28.574Z,992.20
2018-03-21T01:22:21.852Z,992.30
2018-03-21T01:23:21.750Z,992.25
2018-03-21T01:25:14.994Z,992.31
2018-03-21T01:26:14.924Z,992.32
2018-03-21T01:28:08.200Z,992.27
2018-03-21T01:29:08.102Z,992.30
2018-03-21T01:31:01.340Z,992.31
2018-03-21T01:32:01.272Z,992.37
2018-03-21T01:33:54.548Z,992.33
2018-03-21T01:34:54.446Z,992.32
2018-03-21T01:36:47.689Z,992.30
2018-03-21T01:37:47.619Z,992.25
2018-03-21T01:39:40.893Z,992.32
2018-03-21T01:40:40.802Z,992.36
2018-03-21T01:42:34.037Z,992.35
2018-03-21T01:43:33.969Z,992.32
2018-03-21T01:45:27.241Z,992.31
2018-03-21T01:46:27.140Z,992.32
2018-03-21T01:48:20.383Z,992.36
2018-03-21T01:49:20.313Z,992.26
2018-03-21T01:51:13.584Z,992.29
2018-03-21T01:52:13.484Z,992.28
2018-03-21T01:54:06.727Z,992.34
2018-03-21T01:55:06.657Z,992.32
2018-03-21T01:56:59.929Z,992.30
2018-03-21T01:57:59.826Z,992.28
2018-03-21T01:59:53.070Z,992.32
2018-03-21T02:00:53.001Z,992.20
2018-03-21T02:02:46.281Z,992.27
2018-03-21T02:03:46.174Z,992.26
2018-03-21T02:05:39.424Z,992.29
2018-03-21T02:06:39.352Z,992.25
2018-03-21T02:08:32.623Z,992.25
2018-03-21T02:09:32.523Z,992.29
2018-03-21T02:11:25.774Z,992.31
2018-03-21T02:12:25.694Z,992.31
2018-03-21T02:14:18.971Z,992.30
2018-03-21T02:15:18.871Z,992.32
2018-03-21T02:17:12.110Z,992.37
2018-03-21T02:18:12.046Z,992.38
2018-03-21T02:20:05.320Z,992.42
2018-03-21T02:21:05.220Z,992.46
2018-03-21T02:22:58.458Z,992.40
2018-03-21T02:23:58.387Z,992.41
2018-03-21T02:25:51.664Z,992.40
2018-03-21T02:26:51.561Z,992.39
2018-03-21T02:28:44.802Z,992.41
2018-03-21T02:29:44.734Z,992.41
2018-03-21T02:31:38.006Z,992.37
2018-03-21T02:32:37.904Z,992.38
2018-03-21T02:34:31.146Z,992.37
2018-03-21T02:35:31.075Z,992.42
2018-03-21T02:37:24.349Z,992.41
2018-03-21T02:38:24.250Z,992.40
2018-03-21T02:40:17.494Z,992.52
2018-03-21T02:41:17.424Z,992.50
2018-03-21T02:43:10.697Z,992.54
2018-03-21T02:44:10.608Z,992.56
2018-03-21T02:46:03.843Z,992.57
2018-03-21T02:47:03.776Z,992.58
2018-03-21T02:48:57.057Z,992.55
2018-03-21T02:49:56.949Z,992.58
2018-03-21T02:51:50.188Z,992.60
2018-03-21T02:52:50.119Z,992.57
2018-03-21T02:54:43.396Z,992.57
2018-03-21T02:55:43.295Z,992.56
2018-03-21T02:57:36.536Z,992.61
2018-03-21T02:58:36.465Z,992.60
2018-03-21T03:00:29.736Z,992.53
2018-03-21T03:01:29.635Z,992.61
2018-03-21T03:03:22.879Z,992.61
2018-03-21T03:04:22.806Z,992.63
2018-03-21T03:06:16.079Z,992.58
2018-03-21T03:07:15.978Z,992.59
2018-03-21T03:09:09.220Z,992.60
2018-03-21T03:10:09.155Z,992.57
2018-03-21T03:12:02.424Z,992.65
2018-03-21T03:13:02.326Z,992.61
2018-03-21T03:14:55.562Z,992.59
2018-03-21T03:15:55.492Z,992.62
2018-03-21T03:17:48.763Z,992.62
2018-03-21T03:18:48.661Z,992.62
2018-03-21T03:20:41.906Z,992.57
2018-03-21T03:21:41.831Z,992.61
2018-03-21T03:23:35.104Z,992.67
2018-03-21T03:24:35.003Z,992.61
2018-03-21T03:26:28.243Z,992.62
2018-03-21T03:27:28.176Z,992.66
2018-03-21T03:29:21.446Z,992.71
2018-03-21T03:30:21.353Z,992.70
2018-03-21T03:32:14.585Z,992.69
2018-03-21T03:33:14.523Z,992.71
2018-03-21T03:35:07.785Z,992.70
2018-03-21T03:36:07.687Z,992.74
2018-03-21T03:38:00.927Z,992.70
2018-03-21T03:39:00.854Z,992.78
2018-03-21T03:40:54.142Z,992.78
2018-03-21T03:41:54.034Z,992.77
2018-03-21T03:43:47.275Z,992.77
2018-03-21T03:44:47.206Z,992.79
2018-03-21T03:46:40.475Z,992.76
2018-03-21T03:47:40.375Z,992.82
2018-03-21T03:49:33.616Z,992.79
2018-03-21T03:50:33.545Z,992.71
2018-03-21T03:52:26.816Z,992.77
2018-03-21T03:53:26.715Z,992.80
2018-03-21T03:55:19.957Z,992.83
2018-03-21T03:56:19.884Z,992.75
2018-03-21T03:58:13.165Z,992.84
2018-03-21T03:59:13.062Z,992.86
2018-03-21T04:01:06.305Z,992.81
2018-03-21T04:02:06.234Z,992.85
2018-03-21T04:03:59.505Z,992.86
2018-03-21T04:04:59.404Z,992.77
2018-03-21T04:06:52.644Z,992.78
2018-03-21T04:07:52.578Z,992.84
2018-03-21T04:09:45.845Z,992.87
2018-03-21T04:10:45.742Z,992.91
2018-03-21T04:12:38.982Z,992.87
2018-03-21T04:13:38.910Z,992.90
2018-03-21T04:15:32.179Z,992.84
2018-03-21T04:16:32.078Z,992.85
2018-03-21T04:18:25.320Z,992.85
2018-03-21T04:19:25.248Z,992.87
2018-03-21T04:21:18.519Z,992.81
2018-03-21T04:22:18.417Z,992.80
2018-03-21T04:24:11.657Z,992.86
2018-03-21T04:25:11.586Z,992.87
2018-03-21T04:27:04.857Z,992.86
2018-03-21T04:28:04.756Z,992.86
2018-03-21T04:29:57.999Z,992.88
2018-03-21T04:30:57.929Z,992.86
2018-03-21T04:32:51.197Z,992.92
2018-03-21T04:33:51.098Z,992.94
2018-03-21T04:35:44.337Z,992.87
2018-03-21T04:36:44.264Z,992.91
2018-03-21T04:38:37.535Z,992.91
2018-03-21T04:39:37.433Z,992.91
2018-03-21T04:41:30.677Z,992.87
2018-03-21T04:42:30.606Z,992.90
2018-03-21T04:44:23.871Z,992.86
2018-03-21T04:45:23.770Z,992.90
2018-03-21T04:47:17.011Z,992.96
2018-03-21T04:48:16.939Z,992.96
2018-03-21T04:50:10.213Z,992.98
2018-03-21T04:51:10.108Z,993.03
2018-03-21T04:53:03.348Z,992.99
2018-03-21T04:54:03.278Z,992.94
2018-03-21T04:55:56.546Z,992.98
2018-03-21T04:56:56.445Z,992.96
2018-03-21T04:58:49.686Z,992.96
2018-03-21T04:59:49.614Z,993.04
2018-03-21T05:01:42.883Z,993.00
2018-03-21T05:02:42.782Z,993.03
2018-03-21T05:04:36.022Z,993.04
2018-03-21T05:05:35.950Z,993.08
2018-03-21T05:07:29.222Z,993.00
2018-03-21T05:08:29.120Z,993.00
2018-03-21T05:10:22.359Z,992.99
2018-03-21T05:11:22.290Z,992.96
2018-03-21T05:13:15.564Z,992.97
2018-03-21T05:14:15.460Z,992.98
2018-03-21T05:16:08.700Z,993.00
2018-03-21T05:17:08.628Z,993.07
2018-03-21T05:19:01.932Z,993.04
2018-03-21T05:20:01.795Z,993.05
2018-03-21T05:21:55.040Z,993.06
2018-03-21T05:22:54.964Z,993.15
2018-03-21T05:24:48.239Z,993.13
2018-03-21T05:25:48.132Z,993.15
2018-03-21T05:27:41.374Z,993.18
2018-03-21T05:28:41.301Z,993.22
2018-03-21T05:30:34.574Z,993.23
2018-03-21T05:31:34.471Z,993.26
2018-03-21T05:33:27.711Z,993.18
2018-03-21T05:34:27.641Z,993.20
2018-03-21T05:36:20.906Z,993.28
2018-03-21T05:37:20.805Z,993.24
2018-03-21T05:39:14.044Z,993.22
2018-03-21T05:40:13.970Z,993.32
2018-03-21T05:42:07.250Z,993.28
2018-03-21T05:43:07.141Z,993.32
2018-03-21T05:45:00.383Z,993.31
2018-03-21T05:46:00.310Z,993.36
2018-03-21T05:47:53.632Z,993.39
2018-03-21T05:48:53.480Z,993.47
2018-03-21T05:50:46.723Z,993.49
2018-03-21T05:51:46.647Z,993.47
2018-03-21T05:53:39.919Z,993.50
2018-03-21T05:54:39.822Z,993.61
2018-03-21T05:56:33.056Z,993.57
2018-03-21T05:57:32.984Z,993.51
2018-03-21T05:59:26.257Z,993.56
2018-03-21T06:00:26.163Z,993.58
2018-03-21T06:02:18.902Z,993.69
2018-03-21T06:03:18.829Z,993.69
2018-03-21T06:05:12.104Z,993.62
2018-03-21T06:06:12.000Z,993.65
2018-03-21T06:08:05.242Z,993.70
2018-03-21T06:09:05.169Z,993.71
2018-03-21T06:10:58.440Z,993.74
2018-03-21T06:11:58.339Z,993.70
2018-03-21T06:13:51.580Z,993.73
2018-03-21T06:14:51.506Z,993.76
2018-03-21T06:16:44.282Z,993.82
2018-03-21T06:17:44.179Z,993.83
2018-03-21T06:19:37.422Z,993.80
2018-03-21T06:20:37.350Z,993.86
2018-03-21T06:22:30.625Z,993.85
2018-03-21T06:23:30.520Z,993.88
2018-03-21T06:25:23.761Z,993.87
2018-03-21T06:26:23.690Z,993.94
2018-03-21T06:28:16.966Z,993.91
2018-03-21T06:29:16.865Z,993.95
2018-03-21T06:31:10.108Z,993.98
2018-03-21T06:32:10.032Z,994.04
2018-03-21T06:34:03.308Z,993.97
2018-03-21T06:35:03.202Z,994.01
2018-03-21T06:36:56.444Z,994.05
2018-03-21T06:37:56.379Z,994.07
2018-03-21T06:39:49.652Z,994.12
2018-03-21T06:40:49.548Z,994.38
2018-03-21T06:42:42.789Z,994.59
2018-03-21T06:43:42.717Z,994.66
2018-03-21T06:45:35.993Z,994.73
2018-03-21T06:46:35.890Z,994.72
2018-03-21T06:48:29.135Z,994.72
2018-03-21T06:49:29.066Z,994.68
2018-03-21T06:51:22.345Z,994.68
2018-03-21T06:52:22.245Z,994.62
2018-03-21T06:54:15.492Z,994.61
2018-03-21T06:55:15.426Z,994.67
2018-03-21T06:57:08.707Z,994.63
2018-03-21T06:58:08.608Z,994.64
2018-03-21T07:00:01.859Z,994.65
2018-03-21T07:01:01.795Z,994.64
2018-03-21T07:02:55.079Z,994.63
2018-03-21T07:03:54.982Z,994.64
2018-03-21T07:05:48.237Z,994.63
2018-03-21T07:06:48.173Z,994.61
2018-03-21T07:08:41.460Z,994.67
2018-03-21T07:09:41.408Z,994.64
2018-03-21T07:11:34.619Z,994.68
2018-03-21T07:12:34.557Z,994.64
2018-03-21T07:14:27.847Z,994.65
2018-03-21T07:15:27.753Z,994.67
2018-03-21T07:17:21.012Z,994.70
2018-03-21T07:18:20.950Z,994.79
2018-03-21T07:20:14.257Z,994.80
2018-03-21T07:21:14.147Z,994.74
2018-03-21T07:23:07.433Z,994.76
2018-03-21T07:24:07.348Z,994.79
2018-03-21T07:26:00.649Z,994.70
2018-03-21T07:27:00.550Z,994.75
2018-03-21T07:28:53.815Z,994.80
2018-03-21T07:29:53.760Z,994.74
2018-03-21T07:31:47.060Z,994.72
2018-03-21T07:32:46.969Z,994.70
2018-03-21T07:34:40.236Z,994.67
2018-03-21T07:35:40.178Z,994.66
2018-03-21T07:37:33.480Z,994.70
2018-03-21T07:38:33.386Z,994.63
2018-03-21T07:40:26.656Z,994.71
2018-03-21T07:41:26.607Z,994.68
2018-03-21T07:43:19.898Z,994.75
2018-03-21T07:44:19.808Z,994.75
2018-03-21T07:46:13.078Z,994.67
2018-03-21T07:47:13.020Z,994.74
2018-03-21T07:49:06.318Z,994.77
2018-03-21T07:50:06.232Z,994.75
2018-03-21T07:51:59.672Z,994.80
2018-03-21T07:52:59.442Z,994.81
2018-03-21T07:54:52.742Z,994.84
2018-03-21T07:55:52.654Z,994.82
2018-03-21T07:57:45.924Z,994.82
2018-03-21T07:58:45.867Z,994.87
2018-03-21T08:00:39.170Z,994.80
2018-03-21T08:01:39.088Z,994.73
2018-03-21T08:03:31.856Z,994.69
2018-03-21T08:04:31.798Z,994.66
2018-03-21T08:06:25.109Z,994.79
2018-03-21T08:07:25.015Z,994.81
2018-03-21T08:09:18.284Z,994.72
2018-03-21T08:10:18.231Z,994.78
2018-03-21T08:12:11.031Z,994.72
2018-03-21T08:13:10.943Z,994.82
2018-03-21T08:15:04.215Z,994.83
2018-03-21T08:16:04.158Z,994.77
2018-03-21T08:17:56.977Z,994.86
2018-03-21T08:18:56.872Z,994.89
2018-03-21T08:20:49.648Z,994.94
2018-03-21T08:21:49.587Z,994.91
2018-03-21T08:23:42.887Z,994.99
2018-03-21T08:24:42.801Z,994.92
2018-03-21T08:26:36.069Z,994.93
2018-03-21T08:27:36.013Z,994.96
2018-03-21T08:29:29.311Z,994.95
2018-03-21T08:30:29.225Z,994.95
2018-03-21T08:32:22.498Z,994.93
2018-03-21T08:33:22.442Z,995.01
2018-03-21T08:35:15.759Z,994.91
2018-03-21T08:36:15.653Z,994.92
2018-03-21T08:38:08.969Z,995.04
2018-03-21T08:39:08.869Z,994.98
2018-03-21T08:41:01.673Z,994.99
2018-03-21T08:42:01.586Z,995.02
2018-03-21T08:43:54.858Z,995.05
2018-03-21T08:44:54.802Z,995.03
2018-03-21T08:46:47.606Z,994.99
2018-03-21T08:47:47.523Z,995.02
2018-03-21T08:49:40.352Z,995.00
2018-03-21T08:50:40.245Z,995.04
2018-03-21T08:52:33.072Z,995.03
2018-03-21T08:53:32.968Z,995.04
2018-03-21T08:55:26.244Z,994.99
2018-03-21T08:56:26.190Z,994.88
2018-03-21T08:58:19.007Z,995.02
2018-03-21T08:59:18.914Z,994.92
2018-03-21T09:01:11.695Z,994.89
2018-03-21T09:02:11.640Z,994.95
2018-03-21T09:04:05.445Z,994.92
2018-03-21T09:05:05.359Z,994.95
2018-03-21T09:06:58.135Z,994.98
2018-03-21T09:07:58.081Z,994.98
2018-03-21T09:09:51.382Z,994.55
2018-03-21T09:10:51.298Z,994.84
2018-03-21T09:12:44.567Z,994.93
2018-03-21T09:13:44.512Z,994.99
2018-03-21T09:15:37.320Z,994.91
2018-03-21T09:16:37.234Z,994.97
2018-03-21T09:18:30.007Z,995.08
2018-03-21T09:19:29.952Z,994.99
2018-03-21T09:21:23.253Z,994.98
2018-03-21T09:22:23.169Z,995.05
2018-03-21T09:24:15.954Z,995.04
2018-03-21T09:25:15.890Z,995.04
2018-03-21T09:27:09.202Z,995.12
2018-03-21T09:28:09.109Z,995.02
2018-03-21T09:30:02.385Z,995.08
2018-03-21T09:31:02.330Z,995.06
2018-03-21T09:32:55.158Z,994.95
2018-03-21T09:33:55.059Z,994.93
2018-03-21T09:35:48.334Z,994.98
2018-03-21T09:36:48.281Z,995.04
2018-03-21T09:38:41.092Z,995.11
2018-03-21T09:39:41.021Z,995.07
2018-03-21T09:41:34.286Z,994.92
2018-03-21T09:42:34.233Z,995.00
2018-03-21T09:44:27.541Z,995.04
2018-03-21T09:45:27.456Z,995.04
2018-03-21T09:47:20.237Z,994.94
2018-03-21T09:48:20.187Z,994.97
2018-03-21T09:50:13.013Z,994.98
2018-03-21T09:51:12.913Z,995.00
2018-03-21T09:53:06.190Z,994.89
2018-03-21T09:54:06.140Z,994.93
2018-03-21T09:55:59.445Z,994.75
2018-03-21T09:56:59.365Z,994.83
2018-03-21T09:58:52.145Z,994.76
2018-03-21T09:59:52.091Z,994.77
2018-03-21T10:01:45.416Z,994.79
2018-03-21T10:02:45.316Z,994.77
2018-03-21T10:04:38.099Z,994.75
2018-03-21T10:05:38.045Z,994.74
2018-03-21T10:07:30.855Z,994.71
2018-03-21T10:08:30.775Z,994.79
2018-03-21T10:10:23.555Z,994.83
2018-03-21T10:11:23.502Z,994.82
2018-03-21T10:13:16.320Z,994.76
2018-03-21T10:14:16.233Z,994.79
2018-03-21T10:16:10.511Z,994.81
2018-03-21T10:17:10.456Z,994.71
2018-03-21T10:19:03.792Z,994.76
2018-03-21T10:20:03.691Z,994.81
2018-03-21T10:21:56.971Z,994.63
2018-03-21T10:22:56.918Z,994.65
2018-03-21T10:24:49.751Z,994.55
2018-03-21T10:25:49.649Z,994.53
2018-03-21T10:27:42.435Z,994.66
2018-03-21T10:28:42.383Z,994.75
2018-03-21T10:30:35.693Z,994.68
2018-03-21T10:31:35.610Z,994.67
2018-03-21T10:33:28.395Z,994.74
2018-03-21T10:34:28.343Z,994.75
2018-03-21T10:36:21.161Z,994.77
2018-03-21T10:37:21.080Z,994.68
2018-03-21T10:39:14.361Z,994.56
2018-03-21T10:40:14.307Z,994.65
2018-03-21T10:42:07.123Z,994.66
2018-03-21T10:43:07.041Z,994.67
2018-03-21T10:44:59.837Z,994.75
2018-03-21T10:45:59.774Z,994.73
2018-03-21T10:47:52.598Z,994.76
2018-03-21T10:48:52.556Z,994.66
2018-03-21T10:50:45.300Z,994.69
2018-03-21T10:51:45.250Z,994.65
2018-03-21T10:53:38.071Z,994.66
2018-03-21T10:54:37.989Z,994.56
2018-03-21T10:56:31.269Z,994.59
2018-03-21T10:57:31.225Z,994.63
2018-03-21T10:59:24.055Z,994.64
2018-03-21T11:00:23.957Z,994.58
2018-03-21T11:02:16.748Z,994.52
2018-03-21T11:03:16.697Z,994.58
2018-03-21T11:05:10.018Z,994.55
2018-03-21T11:06:09.935Z,994.48
2018-03-21T11:08:03.248Z,994.37
2018-03-21T11:09:03.170Z,994.38
2018-03-21T11:10:55.987Z,994.32
2018-03-21T11:11:55.929Z,994.41
2018-03-21T11:13:48.702Z,994.44
2018-03-21T11:14:48.643Z,994.45
2018-03-21T11:16:41.467Z,994.38
2018-03-21T11:17:41.384Z,994.35
2018-03-21T11:19:34.178Z,994.36
2018-03-21T11:20:34.128Z,994.33
2018-03-21T11:22:27.440Z,994.34
2018-03-21T11:23:27.360Z,994.34
2018-03-21T11:25:20.147Z,994.39
2018-03-21T11:26:20.095Z,994.40
2018-03-21T11:28:13.408Z,994.36
2018-03-21T11:29:13.327Z,994.36
2018-03-21T11:31:06.122Z,994.32
2018-03-21T11:32:06.059Z,994.39
2018-03-21T11:33:58.891Z,994.29
2018-03-21T11:34:58.793Z,994.23
2018-03-21T11:36:52.076Z,994.34
2018-03-21T11:37:52.024Z,994.30
2018-03-21T11:39:45.336Z,994.24
2018-03-21T11:40:45.254Z,994.28
2018-03-21T11:42:38.058Z,994.17
2018-03-21T11:43:37.982Z,994.23
2018-03-21T11:45:31.290Z,994.29
2018-03-21T11:46:31.213Z,994.24
2018-03-21T11:48:23.994Z,994.22
2018-03-21T11:49:23.939Z,994.30
2018-03-21T11:51:17.253Z,994.30
2018-03-21T11:52:17.170Z,994.25
2018-03-21T11:54:09.954Z,994.27
2018-03-21T11:55:09.900Z,994.25
2018-03-21T11:57:03.228Z,994.14
2018-03-21T11:58:03.129Z,994.11
2018-03-21T11:59:55.917Z,994.04
2018-03-21T12:00:55.864Z,993.96
2018-03-21T12:02:48.743Z,993.99
2018-03-21T12:03:48.601Z,994.03
2018-03-21T12:05:41.387Z,993.99
2018-03-21T12:06:41.334Z,993.94
2018-03-21T12:08:34.673Z,993.85
2018-03-21T12:09:34.565Z,993.90
2018-03-21T12:11:27.355Z,993.88
2018-03-21T12:12:27.298Z,993.92
2018-03-21T12:14:20.122Z,994.01
2018-03-21T12:15:20.049Z,994.01
2018-03-21T12:17:12.821Z,994.00
2018-03-21T12:18:12.769Z,993.96
2018-03-21T12:20:06.097Z,993.95
2018-03-21T12:21:05.999Z,993.96
2018-03-21T12:22:59.280Z,993.88
2018-03-21T12:23:59.229Z,993.87
2018-03-21T12:25:52.047Z,993.93
2018-03-21T12:26:51.962Z,993.93
2018-03-21T12:28:44.747Z,993.91
2018-03-21T12:29:44.696Z,993.92
2018-03-21T12:31:38.010Z,993.82
2018-03-21T12:32:37.929Z,993.84
2018-03-21T12:34:30.716Z,993.73
2018-03-21T12:35:30.665Z,993.71
2018-03-21T12:37:23.500Z,993.71
2018-03-21T12:38:23.402Z,993.69
2018-03-21T12:40:16.190Z,993.76
2018-03-21T12:41:16.140Z,993.71
2018-03-21T12:43:08.956Z,993.71
2018-03-21T12:44:08.874Z,993.69
2018-03-21T12:46:01.780Z,993.59
2018-03-21T12:47:01.609Z,993.56
2018-03-21T12:48:54.921Z,993.51
2018-03-21T12:49:54.873Z,993.53
2018-03-21T12:51:47.628Z,993.65
2018-03-21T12:52:47.570Z,993.69
2018-03-21T12:54:40.382Z,993.66
2018-03-21T12:55:40.350Z,993.71
2018-03-21T12:57:33.577Z,993.54
2018-03-21T12:58:33.526Z,993.60
2018-03-21T13:00:26.357Z,993.63
2018-03-21T13:01:26.259Z,993.63
2018-03-21T13:03:19.537Z,993.56
2018-03-21T13:04:19.486Z,993.64
2018-03-21T13:06:12.794Z,993.61
2018-03-21T13:07:12.712Z,993.53
2018-03-21T13:09:05.988Z,993.42
2018-03-21T13:10:05.940Z,993.43
2018-03-21T13:11:58.769Z,993.47
2018-03-21T13:12:58.666Z,993.48
2018-03-21T13:14:51.945Z,993.57
2018-03-21T13:15:51.894Z,993.51
2018-03-21T13:17:45.202Z,993.59
2018-03-21T13:18:45.120Z,993.54
2018-03-21T13:20:37.905Z,993.58
2018-03-21T13:21:37.850Z,993.57
2018-03-21T13:23:30.662Z,993.58
2018-03-21T13:24:30.591Z,993.50
2018-03-21T13:26:23.858Z,993.48
2018-03-21T13:27:23.806Z,993.56
2018-03-21T13:29:17.115Z,993.52
2018-03-21T13:30:17.033Z,993.44
2018-03-21T13:32:09.817Z,993.42
2018-03-21T13:33:09.763Z,993.47
2018-03-21T13:35:03.074Z,993.45
2018-03-21T13:36:02.991Z,993.41
2018-03-21T13:37:56.270Z,993.40
2018-03-21T13:38:56.220Z,993.34
2018-03-21T13:40:49.053Z,993.29
2018-03-21T13:41:49.006Z,993.33
2018-03-21T13:43:41.737Z,993.26
2018-03-21T13:44:41.683Z,993.24
2018-03-21T13:46:34.497Z,993.30
2018-03-21T13:47:34.414Z,993.26
2018-03-21T13:49:27.197Z,993.28
2018-03-21T13:50:27.145Z,993.29
2018-03-21T13:52:20.469Z,993.36
2018-03-21T13:53:20.369Z,993.31
2018-03-21T13:55:13.645Z,993.34
2018-03-21T13:56:13.593Z,993.32
2018-03-21T13:58:06.899Z,993.40
2018-03-21T13:59:06.815Z,993.36
2018-03-21T14:00:59.598Z,993.32
2018-03-21T14:01:59.542Z,993.34
2018-03-21T14:03:52.853Z,993.25
2018-03-21T14:04:52.780Z,993.28
2018-03-21T14:06:46.053Z,993.30
2018-03-21T14:07:45.999Z,993.29
2018-03-21T14:09:38.817Z,993.23
2018-03-21T14:10:38.713Z,993.25
2018-03-21T14:12:31.494Z,993.20
2018-03-21T14:13:31.436Z,993.19
2018-03-21T14:15:24.746Z,993.11
2018-03-21T14:16:24.655Z,993.15
2018-03-21T14:18:17.933Z,993.20
2018-03-21T14:19:17.868Z,993.14
2018-03-21T14:21:11.176Z,993.20
2018-03-21T14:22:11.079Z,993.21
2018-03-21T14:24:04.350Z,993.16
2018-03-21T14:25:04.289Z,993.10
2018-03-21T14:26:57.602Z,993.08
2018-03-21T14:27:57.525Z,993.06
2018-03-21T14:29:50.760Z,993.08
2018-03-21T14:30:50.702Z,993.08
2018-03-21T14:32:43.992Z,993.09
2018-03-21T14:33:43.901Z,993.12
2018-03-21T14:35:37.164Z,993.11
2018-03-21T14:36:37.103Z,993.11
2018-03-21T14:38:30.413Z,993.15
2018-03-21T14:39:30.302Z,993.12
2018-03-21T14:41:23.563Z,993.06
2018-03-21T14:42:23.500Z,993.07
2018-03-21T14:44:16.793Z,993.09
2018-03-21T14:45:16.705Z,993.08
2018-03-21T14:47:09.963Z,993.07
2018-03-21T14:48:09.898Z,993.05
2018-03-21T14:50:03.186Z,993.07
2018-03-21T14:51:03.093Z,993.04
2018-03-21T14:52:56.352Z,993.04
2018-03-21T14:53:56.292Z,993.03
2018-03-21T14:55:49.595Z,993.09
2018-03-21T14:56:49.484Z,993.11
2018-03-21T14:58:42.740Z,993.13
2018-03-21T14:59:42.684Z,993.14
2018-03-21T15:01:35.978Z,993.14
2018-03-21T15:02:35.872Z,993.12
2018-03-21T15:04:29.126Z,993.08
2018-03-21T15:05:29.065Z,993.10
2018-03-21T15:07:22.350Z,993.03
2018-03-21T15:08:22.257Z,993.10
2018-03-21T15:10:15.517Z,993.06
2018-03-21T15:11:15.450Z,993.07
2018-03-21T15:13:08.750Z,993.07
2018-03-21T15:14:08.652Z,993.00
2018-03-21T15:16:01.908Z,993.02
2018-03-21T15:17:01.888Z,993.01
2018-03-21T15:18:55.135Z,993.00
2018-03-21T15:19:55.041Z,993.05
2018-03-21T15:21:48.297Z,993.06
2018-03-21T15:22:48.235Z,993.01
2018-03-21T15:24:41.516Z,992.93
2018-03-21T15:25:41.423Z,992.90
2018-03-21T15:27:34.679Z,992.94
2018-03-21T15:28:34.614Z,992.88
2018-03-21T15:30:27.908Z,992.86
2018-03-21T15:31:27.807Z,992.88
2018-03-21T15:33:21.060Z,992.90
2018-03-21T15:34:20.999Z,992.88
2018-03-21T15:36:14.284Z,992.90
2018-03-21T15:37:14.190Z,992.86
2018-03-21T15:39:07.441Z,992.86
2018-03-21T15:40:07.380Z,992.86
2018-03-21T15:42:00.677Z,992.88
2018-03-21T15:43:00.564Z,992.92
2018-03-21T15:44:53.820Z,992.88
2018-03-21T15:45:53.758Z,992.85
2018-03-21T15:47:47.042Z,992.85
2018-03-21T15:48:46.946Z,992.85
2018-03-21T15:50:40.201Z,992.87
2018-03-21T15:51:40.138Z,992.88
2018-03-21T15:53:33.430Z,992.88
2018-03-21T15:54:33.327Z,992.88
2018-03-21T15:56:26.585Z,992.83
2018-03-21T15:57:26.534Z,992.86
2018-03-21T15:59:19.807Z,992.93
2018-03-21T16:00:19.706Z,992.91
2018-03-21T16:02:12.961Z,992.93
2018-03-21T16:03:12.893Z,992.99
2018-03-21T16:05:06.181Z,992.98
2018-03-21T16:06:06.082Z,992.97
2018-03-21T16:07:59.335Z,992.94
2018-03-21T16:08:59.268Z,992.96
2018-03-21T16:10:52.603Z,992.95
2018-03-21T16:11:52.456Z,992.94
2018-03-21T16:13:45.710Z,993.00
2018-03-21T16:14:45.645Z,992.97
2018-03-21T16:16:38.928Z,992.99
2018-03-21T16:17:38.831Z,993.00
2018-03-21T16:19:32.083Z,993.01
2018-03-21T16:20:32.021Z,993.06
2018-03-21T16:22:25.320Z,993.11
2018-03-21T16:23:25.208Z,993.12
2018-03-21T16:25:18.509Z,993.17
2018-03-21T16:26:18.393Z,993.18
2018-03-21T16:28:11.677Z,993.24
2018-03-21T16:29:11.585Z,993.29
2018-03-21T16:31:04.835Z,993.31
2018-03-21T16:32:04.768Z,993.30
2018-03-21T16:33:58.051Z,993.31
2018-03-21T16:34:57.956Z,993.31
2018-03-21T16:36:51.208Z,993.34
2018-03-21T16:37:51.140Z,993.38
2018-03-21T16:39:44.419Z,993.39
2018-03-21T16:40:44.326Z,993.40
2018-03-21T16:42:37.576Z,993.42
2018-03-21T16:43:37.512Z,993.41
2018-03-21T16:45:30.793Z,993.42
2018-03-21T16:46:30.698Z,993.48
2018-03-21T16:48:23.948Z,993.49
2018-03-21T16:49:23.911Z,993.52
2018-03-21T16:51:17.168Z,993.46
2018-03-21T16:52:17.068Z,993.44
2018-03-21T16:54:10.353Z,993.45
2018-03-21T16:55:10.256Z,993.46
2018-03-21T16:57:03.552Z,993.44
2018-03-21T16:58:03.440Z,993.39
2018-03-21T16:59:56.690Z,993.38
2018-03-21T17:00:56.626Z,993.42
2018-03-21T17:02:49.909Z,993.41
2018-03-21T17:03:49.810Z,993.46
2018-03-21T17:05:43.063Z,993.37
2018-03-21T17:06:42.997Z,993.42
2018-03-21T17:08:36.281Z,993.44
2018-03-21T17:09:36.182Z,993.41
2018-03-21T17:11:29.437Z,993.43
2018-03-21T17:12:29.369Z,993.44
2018-03-21T17:14:22.659Z,993.46
2018-03-21T17:15:22.562Z,993.42
2018-03-21T17:17:15.818Z,993.43
2018-03-21T17:18:15.749Z,993.48
2018-03-21T17:20:09.028Z,993.52
2018-03-21T17:21:08.932Z,993.52
2018-03-21T17:23:02.182Z,993.50
2018-03-21T17:24:02.122Z,993.47
2018-03-21T17:25:55.396Z,993.50
2018-03-21T17:26:55.310Z,993.54
2018-03-21T17:28:48.547Z,993.54
2018-03-21T17:29:48.479Z,993.55
2018-03-21T17:31:41.760Z,993.55
2018-03-21T17:32:41.663Z,993.61
2018-03-21T17:34:34.914Z,993.65
2018-03-21T17:35:34.846Z,993.61
2018-03-21T17:37:28.127Z,993.63
2018-03-21T17:38:28.031Z,993.65
2018-03-21T17:40:21.280Z,993.66
2018-03-21T17:41:21.211Z,993.60
2018-03-21T17:43:14.492Z,993.63
2018-03-21T17:44:14.394Z,993.66
2018-03-21T17:46:07.643Z,993.70
2018-03-21T17:47:07.575Z,993.69
2018-03-21T17:49:00.870Z,993.73
2018-03-21T17:50:01.448Z,993.74
2018-03-21T17:51:54.005Z,993.75
2018-03-21T17:52:53.940Z,993.79
2018-03-21T17:54:47.222Z,993.76
2018-03-21T17:55:47.122Z,993.77
2018-03-21T17:57:40.374Z,993.68
2018-03-21T17:58:40.313Z,993.70
2018-03-21T18:00:33.578Z,993.71